Merkel, Texas
Current Conditions -  °F | °C
As of 11:58 AM on Thursday 27 Nov 2014 (Local Time) from KDYS Reporting Station
Clear Clear  
Wind Chill: 54°   Ceiling: Unl
Heat Index: 54°   Visibility: 10mi
Dew Point: 26°   Wind: 6mph
Humidity: 34%   Direction: 190°S
Pressure: 30.48"   Gusts: NA
Location:  32.47°N, 100.01°W
Report Text: KDYS 271758Z AUTO 19005KT 10SM CLR 12/M03 A3048 RMK AO2 SLP323 T01231032 10123 21008 58010 $
Loading
Personal Weather Stations






























Interactive Weather Map New forecast layout! Learn more

10-Day Weather Forecast

Advertisements
Track Severe Weather on mobile